sensor_id;sensor_type;location;lat;lon;timestamp;pressure;altitude;pressure_sealevel;temperature;humidity
20987;BME280;10652;50.306;8.570;2023-10-19T00:01:34;96237.50;;;9.11;100.00
20987;BME280;10652;50.306;8.570;2023-10-19T00:05:37;96225.13;;;9.13;100.00
20987;BME280;10652;50.306;8.570;2023-10-19T00:09:40;96230.34;;;9.13;100.00
20987;BME280;10652;50.306;8.570;2023-10-19T00:13:42;96219.88;;;9.13;100.00
20987;BME280;10652;50.306;8.570;2023-10-19T00:17:46;96204.16;;;9.13;100.00
20987;BME280;10652;50.306;8.570;2023-10-19T00:21:48;96200.00;;;9.10;100.00
20987;BME280;10652;50.306;8.570;2023-10-19T00:25:54;96193.91;;;9.10;100.00
20987;BME280;10652;50.306;8.570;2023-10-19T00:29:56;96196.03;;;9.05;100.00
20987;BME280;10652;50.306;8.570;2023-10-19T00:34:08;96199.16;;;9.10;100.00
20987;BME280;10652;50.306;8.570;2023-10-19T00:38:10;96193.69;;;9.13;100.00
20987;BME280;10652;50.306;8.570;2023-10-19T00:42:31;96196.31;;;9.13;100.00
20987;BME280;10652;50.306;8.570;2023-10-19T00:46:33;96181.09;;;9.31;100.00
20987;BME280;10652;50.306;8.570;2023-10-19T00:50:46;96188.13;;;9.30;100.00
20987;BME280;10652;50.306;8.570;2023-10-19T00:54:54;96203.59;;;9.33;100.00
20987;BME280;10652;50.306;8.570;2023-10-19T00:59:01;96190.50;;;9.33;100.00
20987;BME280;10652;50.306;8.570;2023-10-19T01:03:29;96172.06;;;9.35;100.00
20987;BME280;10652;50.306;8.570;2023-10-19T01:07:34;96171.00;;;9.37;100.00
20987;BME280;10652;50.306;8.570;2023-10-19T01:11:42;96165.50;;;9.40;100.00
20987;BME280;10652;50.306;8.570;2023-10-19T01:15:47;96168.66;;;9.45;100.00
20987;BME280;10652;50.306;8.570;2023-10-19T01:19:51;96148.31;;;9.49;100.00
20987;BME280;10652;50.306;8.570;2023-10-19T01:23:55;96150.38;;;9.56;100.00
20987;BME280;10652;50.306;8.570;2023-10-19T01:27:59;96161.56;;;9.58;100.00
20987;BME280;10652;50.306;8.570;2023-10-19T01:32:04;96153.50;;;9.62;100.00
20987;BME280;10652;50.306;8.570;2023-10-19T01:36:08;96157.56;;;9.66;100.00
20987;BME280;10652;50.306;8.570;2023-10-19T01:40:13;96135.63;;;9.67;100.00
20987;BME280;10652;50.306;8.570;2023-10-19T01:44:22;96142.31;;;9.71;100.00
20987;BME280;10652;50.306;8.570;2023-10-19T01:48:26;96145.47;;;9.76;100.00
20987;BME280;10652;50.306;8.570;2023-10-19T01:52:38;96137.38;;;9.79;100.00
20987;BME280;10652;50.306;8.570;2023-10-19T01:56:40;96132.88;;;9.81;100.00
20987;BME280;10652;50.306;8.570;2023-10-19T02:00:45;96128.94;;;9.86;100.00
20987;BME280;10652;50.306;8.570;2023-10-19T02:04:47;96125.25;;;9.89;100.00
20987;BME280;10652;50.306;8.570;2023-10-19T02:08:55;96123.47;;;9.89;100.00
20987;BME280;10652;50.306;8.570;2023-10-19T02:12:58;96129.44;;;9.91;100.00
20987;BME280;10652;50.306;8.570;2023-10-19T02:17:08;96124.78;;;9.95;100.00
20987;BME280;10652;50.306;8.570;2023-10-19T02:21:11;96122.59;;;10.13;100.00
20987;BME280;10652;50.306;8.570;2023-10-19T02:25:16;96116.72;;;10.09;100.00
20987;BME280;10652;50.306;8.570;2023-10-19T02:29:19;96109.09;;;10.06;100.00
20987;BME280;10652;50.306;8.570;2023-10-19T02:33:21;96101.31;;;10.04;100.00
20987;BME280;10652;50.306;8.570;2023-10-19T02:37:23;96104.78;;;10.05;100.00
20987;BME280;10652;50.306;8.570;2023-10-19T02:41:27;96103.09;;;10.04;100.00
20987;BME280;10652;50.306;8.570;2023-10-19T02:45:30;96093.44;;;10.04;100.00
20987;BME280;10652;50.306;8.570;2023-10-19T02:49:33;96090.13;;;10.02;100.00
20987;BME280;10652;50.306;8.570;2023-10-19T02:53:40;96091.81;;;10.03;100.00
20987;BME280;10652;50.306;8.570;2023-10-19T02:57:42;96087.16;;;10.07;100.00
20987;BME280;10652;50.306;8.570;2023-10-19T03:01:53;96081.91;;;10.07;100.00
20987;BME280;10652;50.306;8.570;2023-10-19T03:06:18;96091.31;;;10.10;100.00
20987;BME280;10652;50.306;8.570;2023-10-19T03:10:21;96074.38;;;10.14;100.00
20987;BME280;10652;50.306;8.570;2023-10-19T03:14:36;96071.53;;;10.17;100.00
20987;BME280;10652;50.306;8.570;2023-10-19T03:18:39;96074.03;;;10.18;100.00
20987;BME280;10652;50.306;8.570;2023-10-19T03:22:41;96077.38;;;10.20;100.00
20987;BME280;10652;50.306;8.570;2023-10-19T03:26:43;96066.88;;;10.20;100.00
20987;BME280;10652;50.306;8.570;2023-10-19T03:30:50;96064.97;;;10.22;100.00
20987;BME280;10652;50.306;8.570;2023-10-19T03:34:54;96076.09;;;10.26;100.00
20987;BME280;10652;50.306;8.570;2023-10-19T03:39:00;96066.44;;;10.26;100.00
20987;BME280;10652;50.306;8.570;2023-10-19T03:43:15;96054.84;;;10.29;100.00
20987;BME280;10652;50.306;8.570;2023-10-19T03:47:20;96055.69;;;10.29;100.00
20987;BME280;10652;50.306;8.570;2023-10-19T03:51:23;96045.88;;;10.31;100.00
20987;BME280;10652;50.306;8.570;2023-10-19T03:55:28;96050.44;;;10.29;100.00
20987;BME280;10652;50.306;8.570;2023-10-19T03:59:31;96043.25;;;10.31;100.00
20987;BME280;10652;50.306;8.570;2023-10-19T04:03:36;96023.72;;;10.35;100.00
20987;BME280;10652;50.306;8.570;2023-10-19T04:07:38;96044.47;;;10.38;100.00
20987;BME280;10652;50.306;8.570;2023-10-19T04:11:41;96035.41;;;10.42;100.00
20987;BME280;10652;50.306;8.570;2023-10-19T04:15:52;96022.28;;;10.42;100.00
20987;BME280;10652;50.306;8.570;2023-10-19T04:19:55;96026.56;;;10.43;100.00
20987;BME280;10652;50.306;8.570;2023-10-19T04:23:57;96023.22;;;10.41;100.00
20987;BME280;10652;50.306;8.570;2023-10-19T04:28:01;96014.66;;;10.39;100.00
20987;BME280;10652;50.306;8.570;2023-10-19T04:32:03;96004.16;;;10.39;100.00
20987;BME280;10652;50.306;8.570;2023-10-19T04:36:08;95983.50;;;10.46;100.00
20987;BME280;10652;50.306;8.570;2023-10-19T04:40:13;95984.06;;;10.49;100.00
20987;BME280;10652;50.306;8.570;2023-10-19T04:44:15;95989.94;;;10.53;100.00
20987;BME280;10652;50.306;8.570;2023-10-19T04:48:18;95992.41;;;10.55;100.00
20987;BME280;10652;50.306;8.570;2023-10-19T04:52:20;95992.41;;;10.55;100.00
20987;BME280;10652;50.306;8.570;2023-10-19T04:56:22;95991.84;;;10.51;100.00
20987;BME280;10652;50.306;8.570;2023-10-19T05:00:24;95996.25;;;10.51;100.00
20987;BME280;10652;50.306;8.570;2023-10-19T05:04:28;95999.03;;;10.49;100.00
20987;BME280;10652;50.306;8.570;2023-10-19T05:08:31;96003.44;;;10.48;100.00
20987;BME280;10652;50.306;8.570;2023-10-19T05:12:35;96007.69;;;10.49;100.00
20987;BME280;10652;50.306;8.570;2023-10-19T05:16:37;95996.13;;;10.52;100.00
20987;BME280;10652;50.306;8.570;2023-10-19T05:20:39;95997.09;;;10.51;100.00
20987;BME280;10652;50.306;8.570;2023-10-19T05:24:42;96008.41;;;10.52;100.00
20987;BME280;10652;50.306;8.570;2023-10-19T05:28:44;96003.19;;;10.52;100.00
20987;BME280;10652;50.306;8.570;2023-10-19T05:32:46;95993.75;;;10.49;100.00
20987;BME280;10652;50.306;8.570;2023-10-19T05:36:51;96000.06;;;10.46;100.00
20987;BME280;10652;50.306;8.570;2023-10-19T05:40:56;96002.38;;;10.40;100.00
20987;BME280;10652;50.306;8.570;2023-10-19T05:44:59;96002.38;;;10.83;100.00
20987;BME280;10652;50.306;8.570;2023-10-19T05:49:05;96009.81;;;11.10;100.00
20987;BME280;10652;50.306;8.570;2023-10-19T05:53:08;96008.31;;;10.96;100.00
20987;BME280;10652;50.306;8.570;2023-10-19T05:57:10;96000.13;;;10.78;100.00
20987;BME280;10652;50.306;8.570;2023-10-19T06:01:12;96007.22;;;10.67;100.00
20987;BME280;10652;50.306;8.570;2023-10-19T06:05:15;96006.00;;;10.60;100.00
20987;BME280;10652;50.306;8.570;2023-10-19T06:09:18;96006.00;;;10.60;100.00
20987;BME280;10652;50.306;8.570;2023-10-19T06:13:21;96012.94;;;10.61;100.00
20987;BME280;10652;50.306;8.570;2023-10-19T06:17:24;96009.22;;;10.63;100.00
20987;BME280;10652;50.306;8.570;2023-10-19T06:21:26;96016.03;;;10.66;100.00
20987;BME280;10652;50.306;8.570;2023-10-19T06:25:28;96016.88;;;10.66;100.00
20987;BME280;10652;50.306;8.570;2023-10-19T06:29:30;96013.63;;;10.74;100.00
20987;BME280;10652;50.306;8.570;2023-10-19T06:33:33;96006.81;;;10.82;100.00
20987;BME280;10652;50.306;8.570;2023-10-19T06:37:35;96010.63;;;10.89;100.00
20987;BME280;10652;50.306;8.570;2023-10-19T06:41:37;96014.41;;;10.97;100.00
20987;BME280;10652;50.306;8.570;2023-10-19T06:45:39;96022.75;;;11.02;100.00
20987;BME280;10652;50.306;8.570;2023-10-19T06:49:41;96014.75;;;11.03;100.00
20987;BME280;10652;50.306;8.570;2023-10-19T06:53:43;96022.97;;;11.10;100.00
20987;BME280;10652;50.306;8.570;2023-10-19T06:57:50;96025.44;;;11.22;100.00
20987;BME280;10652;50.306;8.570;2023-10-19T07:01:52;96030.94;;;11.30;100.00
20987;BME280;10652;50.306;8.570;2023-10-19T07:05:55;96023.94;;;11.41;100.00
20987;BME280;10652;50.306;8.570;2023-10-19T07:09:58;96016.13;;;11.50;100.00
20987;BME280;10652;50.306;8.570;2023-10-19T07:14:00;96018.56;;;11.63;100.00
20987;BME280;10652;50.306;8.570;2023-10-19T07:18:03;96025.56;;;11.73;100.00
20987;BME280;10652;50.306;8.570;2023-10-19T07:22:05;96033.41;;;11.85;100.00
20987;BME280;10652;50.306;8.570;2023-10-19T07:26:11;96022.78;;;11.96;100.00
20987;BME280;10652;50.306;8.570;2023-10-19T07:30:19;96023.56;;;12.07;100.00
20987;BME280;10652;50.306;8.570;2023-10-19T07:34:31;96011.41;;;12.16;100.00
20987;BME280;10652;50.306;8.570;2023-10-19T07:38:35;96012.41;;;12.24;100.00
20987;BME280;10652;50.306;8.570;2023-10-19T07:42:37;96017.59;;;12.36;100.00
20987;BME280;10652;50.306;8.570;2023-10-19T07:46:39;96014.88;;;12.47;100.00
20987;BME280;10652;50.306;8.570;2023-10-19T07:50:41;96015.47;;;12.60;100.00
20987;BME280;10652;50.306;8.570;2023-10-19T07:54:44;96019.41;;;12.75;100.00
20987;BME280;10652;50.306;8.570;2023-10-19T07:58:47;96022.66;;;12.98;100.00
20987;BME280;10652;50.306;8.570;2023-10-19T08:02:49;96013.75;;;13.08;100.00
20987;BME280;10652;50.306;8.570;2023-10-19T08:06:53;96024.31;;;13.18;100.00
20987;BME280;10652;50.306;8.570;2023-10-19T08:10:55;96020.84;;;13.18;100.00
20987;BME280;10652;50.306;8.570;2023-10-19T08:14:58;96017.25;;;13.09;100.00
20987;BME280;10652;50.306;8.570;2023-10-19T08:19:01;96014.19;;;13.04;100.00
20987;BME280;10652;50.306;8.570;2023-10-19T08:23:03;96026.94;;;13.08;100.00
20987;BME280;10652;50.306;8.570;2023-10-19T08:27:07;96018.38;;;13.26;100.00
20987;BME280;10652;50.306;8.570;2023-10-19T08:31:10;96009.22;;;13.30;100.00
20987;BME280;10652;50.306;8.570;2023-10-19T08:35:12;96015.31;;;13.21;100.00
20987;BME280;10652;50.306;8.570;2023-10-19T08:39:14;96011.03;;;13.29;100.00
20987;BME280;10652;50.306;8.570;2023-10-19T08:43:18;96020.91;;;13.56;100.00
20987;BME280;10652;50.306;8.570;2023-10-19T08:47:20;96021.56;;;13.87;100.00
20987;BME280;10652;50.306;8.570;2023-10-19T08:51:23;96016.09;;;14.08;100.00
20987;BME280;10652;50.306;8.570;2023-10-19T08:55:27;96006.63;;;14.15;100.00
20987;BME280;10652;50.306;8.570;2023-10-19T08:59:46;96011.50;;;14.10;100.00
20987;BME280;10652;50.306;8.570;2023-10-19T09:03:49;95996.88;;;14.25;100.00
20987;BME280;10652;50.306;8.570;2023-10-19T09:07:52;95988.69;;;14.45;100.00
20987;BME280;10652;50.306;8.570;2023-10-19T09:11:57;95972.28;;;14.52;100.00
20987;BME280;10652;50.306;8.570;2023-10-19T09:16:04;95982.31;;;14.48;100.00
20987;BME280;10652;50.306;8.570;2023-10-19T09:20:07;95970.13;;;14.37;100.00
20987;BME280;10652;50.306;8.570;2023-10-19T09:24:11;95967.66;;;14.26;100.00
20987;BME280;10652;50.306;8.570;2023-10-19T09:28:13;95979.25;;;14.16;100.00
20987;BME280;10652;50.306;8.570;2023-10-19T09:32:16;95999.13;;;14.10;100.00
20987;BME280;10652;50.306;8.570;2023-10-19T09:36:19;95994.16;;;14.07;100.00
20987;BME280;10652;50.306;8.570;2023-10-19T09:40:23;95990.50;;;14.08;100.00
20987;BME280;10652;50.306;8.570;2023-10-19T09:44:26;95994.81;;;14.09;100.00
20987;BME280;10652;50.306;8.570;2023-10-19T09:48:41;95967.00;;;14.15;100.00
20987;BME280;10652;50.306;8.570;2023-10-19T09:52:47;95959.09;;;14.15;100.00
20987;BME280;10652;50.306;8.570;2023-10-19T09:56:57;95962.03;;;14.12;100.00
20987;BME280;10652;50.306;8.570;2023-10-19T10:01:03;95954.72;;;13.96;100.00
20987;BME280;10652;50.306;8.570;2023-10-19T10:09:44;95961.56;;;13.89;100.00
20987;BME280;10652;50.306;8.570;2023-10-19T10:13:48;95954.41;;;13.99;100.00
20987;BME280;10652;50.306;8.570;2023-10-19T10:17:54;95955.88;;;14.21;100.00
20987;BME280;10652;50.306;8.570;2023-10-19T10:26:16;95953.72;;;14.34;100.00
20987;BME280;10652;50.306;8.570;2023-10-19T10:30:19;95943.16;;;14.34;100.00
20987;BME280;10652;50.306;8.570;2023-10-19T10:38:36;95948.19;;;14.27;100.00
20987;BME280;10652;50.306;8.570;2023-10-19T10:42:39;95949.78;;;14.48;100.00
20987;BME280;10652;50.306;8.570;2023-10-19T10:46:43;95952.84;;;14.43;100.00
20987;BME280;10652;50.306;8.570;2023-10-19T10:50:45;95961.19;;;14.48;100.00
20987;BME280;10652;50.306;8.570;2023-10-19T10:54:48;95974.78;;;14.53;100.00
20987;BME280;10652;50.306;8.570;2023-10-19T10:58:50;95966.28;;;14.59;100.00
20987;BME280;10652;50.306;8.570;2023-10-19T11:03:02;95974.00;;;14.70;100.00
20987;BME280;10652;50.306;8.570;2023-10-19T11:07:06;95967.41;;;15.19;100.00
20987;BME280;10652;50.306;8.570;2023-10-19T11:11:19;95961.09;;;15.56;100.00
20987;BME280;10652;50.306;8.570;2023-10-19T11:15:22;95955.28;;;15.96;100.00
20987;BME280;10652;50.306;8.570;2023-10-19T11:19:38;95942.91;;;16.04;100.00
20987;BME280;10652;50.306;8.570;2023-10-19T11:23:43;95939.63;;;16.02;99.33
20987;BME280;10652;50.306;8.570;2023-10-19T11:27:46;95937.44;;;15.98;98.92
20987;BME280;10652;50.306;8.570;2023-10-19T11:31:59;95945.63;;;15.87;99.14
20987;BME280;10652;50.306;8.570;2023-10-19T11:36:05;95944.69;;;15.70;99.50
20987;BME280;10652;50.306;8.570;2023-10-19T11:40:07;95936.09;;;15.50;100.00
20987;BME280;10652;50.306;8.570;2023-10-19T11:44:10;95930.22;;;15.39;100.00
20987;BME280;10652;50.306;8.570;2023-10-19T11:48:12;95925.00;;;15.29;100.00
20987;BME280;10652;50.306;8.570;2023-10-19T11:52:14;95926.91;;;15.19;100.00
20987;BME280;10652;50.306;8.570;2023-10-19T11:56:16;95927.50;;;15.13;100.00
20987;BME280;10652;50.306;8.570;2023-10-19T12:00:19;95925.16;;;15.10;100.00
20987;BME280;10652;50.306;8.570;2023-10-19T12:04:25;95908.72;;;15.16;100.00
20987;BME280;10652;50.306;8.570;2023-10-19T12:08:28;95906.72;;;15.18;100.00
20987;BME280;10652;50.306;8.570;2023-10-19T12:12:30;95904.75;;;15.20;100.00
20987;BME280;10652;50.306;8.570;2023-10-19T12:16:35;95900.00;;;15.23;100.00
20987;BME280;10652;50.306;8.570;2023-10-19T12:20:38;95897.25;;;15.33;100.00
20987;BME280;10652;50.306;8.570;2023-10-19T12:24:40;95889.00;;;15.36;100.00
20987;BME280;10652;50.306;8.570;2023-10-19T12:28:42;95891.09;;;15.50;100.00
20987;BME280;10652;50.306;8.570;2023-10-19T12:32:48;95889.59;;;15.65;100.00
20987;BME280;10652;50.306;8.570;2023-10-19T12:36:51;95889.63;;;15.73;100.00
20987;BME280;10652;50.306;8.570;2023-10-19T12:40:54;95893.00;;;15.84;100.00
20987;BME280;10652;50.306;8.570;2023-10-19T12:44:56;95884.44;;;15.90;100.00
20987;BME280;10652;50.306;8.570;2023-10-19T12:48:58;95872.22;;;15.97;100.00
20987;BME280;10652;50.306;8.570;2023-10-19T12:53:00;95884.47;;;15.98;100.00
20987;BME280;10652;50.306;8.570;2023-10-19T12:57:04;95864.28;;;15.97;100.00
20987;BME280;10652;50.306;8.570;2023-10-19T13:01:08;95868.38;;;15.91;100.00
20987;BME280;10652;50.306;8.570;2023-10-19T13:05:18;95864.53;;;15.86;100.00
20987;BME280;10652;50.306;8.570;2023-10-19T13:09:23;95859.38;;;15.76;100.00
20987;BME280;10652;50.306;8.570;2023-10-19T13:13:32;95857.50;;;15.68;100.00
20987;BME280;10652;50.306;8.570;2023-10-19T13:17:35;95851.69;;;15.65;100.00
20987;BME280;10652;50.306;8.570;2023-10-19T13:21:39;95850.03;;;15.64;100.00
20987;BME280;10652;50.306;8.570;2023-10-19T13:25:44;95836.97;;;15.62;100.00
20987;BME280;10652;50.306;8.570;2023-10-19T13:29:51;95846.88;;;15.60;100.00
20987;BME280;10652;50.306;8.570;2023-10-19T13:33:53;95840.91;;;15.58;100.00
20987;BME280;10652;50.306;8.570;2023-10-19T13:37:56;95844.66;;;15.56;100.00
20987;BME280;10652;50.306;8.570;2023-10-19T13:41:58;95840.34;;;15.55;100.00
20987;BME280;10652;50.306;8.570;2023-10-19T13:46:00;95834.50;;;15.69;100.00
20987;BME280;10652;50.306;8.570;2023-10-19T13:50:04;95830.06;;;15.69;100.00
20987;BME280;10652;50.306;8.570;2023-10-19T13:54:07;95845.06;;;15.61;100.00
20987;BME280;10652;50.306;8.570;2023-10-19T13:58:09;95843.78;;;15.47;100.00
20987;BME280;10652;50.306;8.570;2023-10-19T14:02:12;95844.59;;;15.40;100.00
20987;BME280;10652;50.306;8.570;2023-10-19T14:06:15;95841.72;;;15.33;100.00
20987;BME280;10652;50.306;8.570;2023-10-19T14:10:18;95843.66;;;15.31;100.00
20987;BME280;10652;50.306;8.570;2023-10-19T14:14:23;95833.41;;;15.28;100.00
20987;BME280;10652;50.306;8.570;2023-10-19T14:18:25;95835.69;;;15.23;100.00
20987;BME280;10652;50.306;8.570;2023-10-19T14:22:30;95822.56;;;15.13;100.00
20987;BME280;10652;50.306;8.570;2023-10-19T14:26:36;95825.00;;;15.07;100.00
20987;BME280;10652;50.306;8.570;2023-10-19T14:30:38;95816.38;;;15.05;100.00
20987;BME280;10652;50.306;8.570;2023-10-19T14:34:40;95809.41;;;15.04;100.00
20987;BME280;10652;50.306;8.570;2023-10-19T14:38:44;95807.78;;;15.03;100.00
20987;BME280;10652;50.306;8.570;2023-10-19T14:42:48;95800.47;;;14.97;100.00
20987;BME280;10652;50.306;8.570;2023-10-19T14:46:50;95794.28;;;14.88;100.00
20987;BME280;10652;50.306;8.570;2023-10-19T14:50:56;95800.69;;;14.85;100.00
20987;BME280;10652;50.306;8.570;2023-10-19T14:54:59;95783.47;;;14.81;100.00
20987;BME280;10652;50.306;8.570;2023-10-19T14:59:01;95777.69;;;14.78;100.00
20987;BME280;10652;50.306;8.570;2023-10-19T15:03:04;95776.84;;;14.77;100.00
20987;BME280;10652;50.306;8.570;2023-10-19T15:07:10;95764.94;;;14.73;100.00
20987;BME280;10652;50.306;8.570;2023-10-19T15:11:16;95757.13;;;14.72;100.00
20987;BME280;10652;50.306;8.570;2023-10-19T15:15:19;95741.75;;;14.67;100.00
20987;BME280;10652;50.306;8.570;2023-10-19T15:19:22;95716.31;;;14.66;100.00
20987;BME280;10652;50.306;8.570;2023-10-19T15:23:25;95683.94;;;14.64;100.00
20987;BME280;10652;50.306;8.570;2023-10-19T15:27:28;95671.63;;;14.55;100.00
20987;BME280;10652;50.306;8.570;2023-10-19T15:31:30;95670.72;;;14.46;100.00
20987;BME280;10652;50.306;8.570;2023-10-19T15:35:33;95663.66;;;14.47;100.00
20987;BME280;10652;50.306;8.570;2023-10-19T15:39:38;95676.84;;;14.47;100.00
20987;BME280;10652;50.306;8.570;2023-10-19T15:43:40;95669.91;;;14.46;100.00
20987;BME280;10652;50.306;8.570;2023-10-19T15:47:42;95664.25;;;14.41;100.00
20987;BME280;10652;50.306;8.570;2023-10-19T15:51:45;95657.31;;;14.40;100.00
20987;BME280;10652;50.306;8.570;2023-10-19T15:55:47;95635.16;;;14.33;100.00
20987;BME280;10652;50.306;8.570;2023-10-19T15:59:49;95632.44;;;14.25;100.00
20987;BME280;10652;50.306;8.570;2023-10-19T16:03:52;95623.56;;;14.26;100.00
20987;BME280;10652;50.306;8.570;2023-10-19T16:07:54;95614.09;;;14.23;100.00
20987;BME280;10652;50.306;8.570;2023-10-19T16:11:56;95622.16;;;14.22;100.00
20987;BME280;10652;50.306;8.570;2023-10-19T16:16:02;95620.81;;;14.18;100.00
20987;BME280;10652;50.306;8.570;2023-10-19T16:20:05;95628.91;;;14.16;100.00
20987;BME280;10652;50.306;8.570;2023-10-19T16:24:12;95651.69;;;14.17;100.00
20987;BME280;10652;50.306;8.570;2023-10-19T16:28:14;95650.03;;;14.16;100.00
20987;BME280;10652;50.306;8.570;2023-10-19T16:32:16;95659.09;;;14.14;100.00
20987;BME280;10652;50.306;8.570;2023-10-19T16:36:21;95656.97;;;14.17;100.00
20987;BME280;10652;50.306;8.570;2023-10-19T16:40:23;95650.03;;;14.16;100.00
20987;BME280;10652;50.306;8.570;2023-10-19T16:44:25;95641.44;;;14.14;100.00
20987;BME280;10652;50.306;8.570;2023-10-19T16:48:27;95658.09;;;14.15;100.00
20987;BME280;10652;50.306;8.570;2023-10-19T16:52:29;95643.25;;;14.14;100.00
20987;BME280;10652;50.306;8.570;2023-10-19T16:56:31;95658.41;;;14.12;100.00
20987;BME280;10652;50.306;8.570;2023-10-19T17:00:33;95668.97;;;14.12;100.00
20987;BME280;10652;50.306;8.570;2023-10-19T17:04:42;95671.44;;;14.13;100.00
20987;BME280;10652;50.306;8.570;2023-10-19T17:08:44;95668.16;;;14.11;100.00
20987;BME280;10652;50.306;8.570;2023-10-19T17:12:46;95664.53;;;14.12;100.00
20987;BME280;10652;50.306;8.570;2023-10-19T17:16:49;95665.06;;;14.16;100.00
20987;BME280;10652;50.306;8.570;2023-10-19T17:20:52;95677.28;;;14.17;100.00
20987;BME280;10652;50.306;8.570;2023-10-19T17:24:54;95671.00;;;14.18;100.00
20987;BME280;10652;50.306;8.570;2023-10-19T17:28:56;95673.63;;;14.18;100.00
20987;BME280;10652;50.306;8.570;2023-10-19T17:33:00;95669.88;;;14.20;100.00
20987;BME280;10652;50.306;8.570;2023-10-19T17:37:13;95660.81;;;14.23;100.00
20987;BME280;10652;50.306;8.570;2023-10-19T17:41:15;95658.94;;;14.15;100.00
20987;BME280;10652;50.306;8.570;2023-10-19T17:45:17;95668.97;;;14.12;100.00
20987;BME280;10652;50.306;8.570;2023-10-19T17:49:19;95662.88;;;14.11;100.00
20987;BME280;10652;50.306;8.570;2023-10-19T17:53:21;95674.91;;;14.14;100.00
20987;BME280;10652;50.306;8.570;2023-10-19T17:57:25;95660.88;;;14.13;100.00
20987;BME280;10652;50.306;8.570;2023-10-19T18:01:27;95658.41;;;14.12;100.00
20987;BME280;10652;50.306;8.570;2023-10-19T18:05:32;95645.13;;;14.03;100.00
20987;BME280;10652;50.306;8.570;2023-10-19T18:09:34;95654.88;;;14.03;100.00
20987;BME280;10652;50.306;8.570;2023-10-19T18:13:39;95655.69;;;14.03;100.00
20987;BME280;10652;50.306;8.570;2023-10-19T18:17:41;95646.78;;;14.05;100.00
20987;BME280;10652;50.306;8.570;2023-10-19T18:21:44;95649.28;;;14.06;100.00
20987;BME280;10652;50.306;8.570;2023-10-19T18:25:46;95661.50;;;14.07;100.00
20987;BME280;10652;50.306;8.570;2023-10-19T18:29:48;95666.47;;;14.10;100.00
20987;BME280;10652;50.306;8.570;2023-10-19T18:33:51;95659.53;;;14.09;100.00
20987;BME280;10652;50.306;8.570;2023-10-19T18:37:53;95649.66;;;14.11;100.00
20987;BME280;10652;50.306;8.570;2023-10-19T18:41:55;95643.25;;;14.14;100.00
20987;BME280;10652;50.306;8.570;2023-10-19T18:45:59;95635.84;;;14.17;100.00
20987;BME280;10652;50.306;8.570;2023-10-19T18:50:01;95629.22;;;14.13;100.00
20987;BME280;10652;50.306;8.570;2023-10-19T18:54:30;95605.63;;;14.12;100.00
20987;BME280;10652;50.306;8.570;2023-10-19T18:58:32;95606.59;;;14.11;100.00
20987;BME280;10652;50.306;8.570;2023-10-19T19:02:35;95601.00;;;14.14;100.00
20987;BME280;10652;50.306;8.570;2023-10-19T19:06:37;95597.38;;;14.15;100.00
20987;BME280;10652;50.306;8.570;2023-10-19T19:10:40;95602.66;;;14.15;100.00
20987;BME280;10652;50.306;8.570;2023-10-19T19:14:42;95584.19;;;14.15;100.00
20987;BME280;10652;50.306;8.570;2023-10-19T19:18:45;95569.16;;;14.15;100.00
20987;BME280;10652;50.306;8.570;2023-10-19T19:22:47;95570.66;;;14.18;100.00
20987;BME280;10652;50.306;8.570;2023-10-19T19:26:49;95582.22;;;14.17;100.00
20987;BME280;10652;50.306;8.570;2023-10-19T19:30:51;95583.88;;;14.18;100.00
20987;BME280;10652;50.306;8.570;2023-10-19T19:34:53;95578.44;;;14.19;100.00
20987;BME280;10652;50.306;8.570;2023-10-19T19:38:57;95593.31;;;14.20;100.00
20987;BME280;10652;50.306;8.570;2023-10-19T19:42:59;95590.66;;;14.20;100.00
20987;BME280;10652;50.306;8.570;2023-10-19T19:47:01;95589.69;;;14.21;100.00
20987;BME280;10652;50.306;8.570;2023-10-19T19:51:03;95589.97;;;14.18;100.00
20987;BME280;10652;50.306;8.570;2023-10-19T19:55:09;95582.50;;;14.14;100.00
20987;BME280;10652;50.306;8.570;2023-10-19T19:59:14;95567.66;;;14.13;100.00
20987;BME280;10652;50.306;8.570;2023-10-19T20:03:16;95567.50;;;14.14;100.00
20987;BME280;10652;50.306;8.570;2023-10-19T20:07:18;95564.88;;;14.14;100.00
20987;BME280;10652;50.306;8.570;2023-10-19T20:11:20;95567.19;;;14.17;100.00
20987;BME280;10652;50.306;8.570;2023-10-19T20:15:23;95546.91;;;14.18;100.00
20987;BME280;10652;50.306;8.570;2023-10-19T20:19:25;95550.00;;;14.13;100.00
20987;BME280;10652;50.306;8.570;2023-10-19T20:23:27;95547.69;;;14.10;100.00
20987;BME280;10652;50.306;8.570;2023-10-19T20:27:30;95560.06;;;14.10;100.00
20987;BME280;10652;50.306;8.570;2023-10-19T20:31:32;95558.38;;;14.09;100.00
20987;BME280;10652;50.306;8.570;2023-10-19T20:35:34;95561.34;;;14.06;100.00
20987;BME280;10652;50.306;8.570;2023-10-19T20:39:36;95565.94;;;14.03;100.00
20987;BME280;10652;50.306;8.570;2023-10-19T20:43:41;95548.16;;;14.06;100.00
20987;BME280;10652;50.306;8.570;2023-10-19T20:47:48;95533.47;;;14.03;100.00
20987;BME280;10652;50.306;8.570;2023-10-19T20:51:59;95537.59;;;14.06;100.00
20987;BME280;10652;50.306;8.570;2023-10-19T20:56:02;95520.31;;;14.11;100.00
20987;BME280;10652;50.306;8.570;2023-10-19T21:00:06;95516.31;;;14.07;100.00
20987;BME280;10652;50.306;8.570;2023-10-19T21:04:10;95511.50;;;14.02;100.00
20987;BME280;10652;50.306;8.570;2023-10-19T21:08:12;95501.25;;;13.99;100.00
20987;BME280;10652;50.306;8.570;2023-10-19T21:12:15;95510.47;;;13.95;100.00
20987;BME280;10652;50.306;8.570;2023-10-19T21:16:19;95489.34;;;13.95;100.00
20987;BME280;10652;50.306;8.570;2023-10-19T21:20:22;95484.06;;;13.95;100.00
20987;BME280;10652;50.306;8.570;2023-10-19T21:24:26;95463.28;;;13.92;100.00
20987;BME280;10652;50.306;8.570;2023-10-19T21:28:28;95476.47;;;13.92;100.00